<?xml version="1.0" encoding="UTF-8" standalone="no" ?>
<gpx xmlns="http://www.topografix.com/GPX/1/1" xmlns:xsi="http://www.w3.org/2001/XMLSchema-instance" xsi:schemaLocation="http://www.topografix.com/GPX/1/1 http://www.topografix.com/GPX/1/1/gpx.xsd" version="1.1" creator="VisuGPX - https://www.visugpx.com">
  <metadata>
    <name>Bourgueil_ChouzeLaChapelle_20-24km</name>
    <desc><![CDATA[gnerando idor: 8178174_8178187_8178228]]></desc>
  </metadata>
  <trk>
    <name><![CDATA[Bourgueil_Chouze_20.7km-8178187]]></name>
    <extensions>
      <line xmlns="http://www.topografix.com/GPX/gpx_style/0/2">
        <color>00FF00</color>
        <width>4</width>
      </line>
    </extensions>
    <trkseg>
      <trkpt lat="47.28249" lon="0.16861">
        <ele>48</ele>
        <time>2023-10-31T12:56:37Z</time>
      </trkpt>
      <trkpt lat="47.28255" lon="0.16789">
        <ele>47</ele>
        <time>2023-10-31T12:57:43Z</time>
      </trkpt>
      <trkpt lat="47.28179" lon="0.16759">
        <ele>46</ele>
        <time>2023-10-31T12:59:28Z</time>
      </trkpt>
      <trkpt lat="47.28118" lon="0.16712">
        <ele>42</ele>
        <time>2023-10-31T13:01:00Z</time>
      </trkpt>
      <trkpt lat="47.2815" lon="0.16291">
        <ele>41</ele>
        <time>2023-10-31T13:07:23Z</time>
      </trkpt>
      <trkpt lat="47.27981" lon="0.16265">
        <ele>33</ele>
        <time>2023-10-31T13:11:10Z</time>
      </trkpt>
      <trkpt lat="47.27856" lon="0.16179">
        <ele>30</ele>
        <time>2023-10-31T13:14:14Z</time>
      </trkpt>
      <trkpt lat="47.27821" lon="0.16021">
        <ele>28</ele>
        <time>2023-10-31T13:16:44Z</time>
      </trkpt>
      <trkpt lat="47.27733" lon="0.16016">
        <ele>28</ele>
        <time>2023-10-31T13:18:42Z</time>
      </trkpt>
      <trkpt lat="47.27567" lon="0.1584">
        <ele>29</ele>
        <time>2023-10-31T13:23:15Z</time>
      </trkpt>
      <trkpt lat="47.26988" lon="0.15699">
        <ele>28</ele>
        <time>2023-10-31T13:36:18Z</time>
      </trkpt>
      <trkpt lat="47.26912" lon="0.15952">
        <ele>27</ele>
        <time>2023-10-31T13:40:28Z</time>
      </trkpt>
      <trkpt lat="47.26406" lon="0.15613">
        <ele>27</ele>
        <time>2023-10-31T13:52:50Z</time>
      </trkpt>
      <trkpt lat="47.26216" lon="0.16064">
        <ele>26</ele>
        <time>2023-10-31T14:00:51Z</time>
      </trkpt>
      <trkpt lat="47.26123" lon="0.16488">
        <ele>31</ele>
        <time>2023-10-31T14:07:34Z</time>
      </trkpt>
      <trkpt lat="47.25995" lon="0.17209">
        <ele>30</ele>
        <time>2023-10-31T14:18:49Z</time>
      </trkpt>
      <trkpt lat="47.25966" lon="0.17742">
        <ele>29</ele>
        <time>2023-10-31T14:26:54Z</time>
      </trkpt>
      <trkpt lat="47.2575" lon="0.17759">
        <ele>31</ele>
        <time>2023-10-31T14:31:42Z</time>
      </trkpt>
      <trkpt lat="47.25535" lon="0.17845">
        <ele>29</ele>
        <time>2023-10-31T14:36:40Z</time>
      </trkpt>
      <trkpt lat="47.25407" lon="0.18046">
        <ele>30</ele>
        <time>2023-10-31T14:40:49Z</time>
      </trkpt>
      <trkpt lat="47.2536" lon="0.17669">
        <ele>29</ele>
        <time>2023-10-31T14:46:36Z</time>
      </trkpt>
      <trkpt lat="47.25313" lon="0.17617">
        <ele>28</ele>
        <time>2023-10-31T14:47:55Z</time>
      </trkpt>
      <trkpt lat="47.25293" lon="0.17686">
        <ele>29</ele>
        <time>2023-10-31T14:49:03Z</time>
      </trkpt>
      <trkpt lat="47.2515" lon="0.17729">
        <ele>29</ele>
        <time>2023-10-31T14:52:18Z</time>
      </trkpt>
      <trkpt lat="47.25139" lon="0.17819">
        <ele>30</ele>
        <time>2023-10-31T14:53:40Z</time>
      </trkpt>
      <trkpt lat="47.24859" lon="0.17857">
        <ele>30</ele>
        <time>2023-10-31T14:59:56Z</time>
      </trkpt>
      <trkpt lat="47.24821" lon="0.17789">
        <ele>30</ele>
        <time>2023-10-31T15:01:15Z</time>
      </trkpt>
      <trkpt lat="47.24713" lon="0.17767">
        <ele>30</ele>
        <time>2023-10-31T15:03:41Z</time>
      </trkpt>
      <trkpt lat="47.24588" lon="0.17866">
        <ele>30</ele>
        <time>2023-10-31T15:06:50Z</time>
      </trkpt>
      <trkpt lat="47.24346" lon="0.17621">
        <ele>30</ele>
        <time>2023-10-31T15:13:22Z</time>
      </trkpt>
      <trkpt lat="47.24285" lon="0.17621">
        <ele>30</ele>
        <time>2023-10-31T15:14:44Z</time>
      </trkpt>
      <trkpt lat="47.24308" lon="0.17428">
        <ele>29</ele>
        <time>2023-10-31T15:17:41Z</time>
      </trkpt>
      <trkpt lat="47.24384" lon="0.17364">
        <ele>29</ele>
        <time>2023-10-31T15:19:38Z</time>
      </trkpt>
      <trkpt lat="47.24431" lon="0.17124">
        <ele>31</ele>
        <time>2023-10-31T15:23:24Z</time>
      </trkpt>
      <trkpt lat="47.24369" lon="0.17059">
        <ele>31</ele>
        <time>2023-10-31T15:25:06Z</time>
      </trkpt>
      <trkpt lat="47.24457" lon="0.1654">
        <ele>31</ele>
        <time>2023-10-31T15:33:10Z</time>
      </trkpt>
      <trkpt lat="47.2462" lon="0.16574">
        <ele>30</ele>
        <time>2023-10-31T15:36:50Z</time>
      </trkpt>
      <trkpt lat="47.24626" lon="0.16265">
        <ele>32</ele>
        <time>2023-10-31T15:41:30Z</time>
      </trkpt>
      <trkpt lat="47.24166" lon="0.16192">
        <ele>38</ele>
        <time>2023-10-31T15:51:48Z</time>
      </trkpt>
      <trkpt lat="47.24166" lon="0.16136">
        <ele>37</ele>
        <time>2023-10-31T15:52:38Z</time>
      </trkpt>
      <trkpt lat="47.24017" lon="0.16055">
        <ele>39</ele>
        <time>2023-10-31T15:56:10Z</time>
      </trkpt>
      <trkpt lat="47.24046" lon="0.159">
        <ele>36</ele>
        <time>2023-10-31T15:58:36Z</time>
      </trkpt>
      <trkpt lat="47.23994" lon="0.15596">
        <ele>33</ele>
        <time>2023-10-31T16:03:20Z</time>
      </trkpt>
      <trkpt lat="47.24049" lon="0.15437">
        <ele>33</ele>
        <time>2023-10-31T16:06:02Z</time>
      </trkpt>
      <trkpt lat="47.23988" lon="0.15145">
        <ele>34</ele>
        <time>2023-10-31T16:10:38Z</time>
      </trkpt>
      <trkpt lat="47.24023" lon="0.14926">
        <ele>34</ele>
        <time>2023-10-31T16:14:02Z</time>
      </trkpt>
      <trkpt lat="47.24014" lon="0.1475">
        <ele>37</ele>
        <time>2023-10-31T16:16:42Z</time>
      </trkpt>
      <trkpt lat="47.24145" lon="0.1466">
        <ele>33</ele>
        <time>2023-10-31T16:19:55Z</time>
      </trkpt>
      <trkpt lat="47.24081" lon="0.14102">
        <ele>32</ele>
        <time>2023-10-31T16:28:28Z</time>
      </trkpt>
      <trkpt lat="47.2395" lon="0.13725">
        <ele>34</ele>
        <time>2023-10-31T16:34:51Z</time>
      </trkpt>
      <trkpt lat="47.23982" lon="0.1369">
        <ele>33</ele>
        <time>2023-10-31T16:35:45Z</time>
      </trkpt>
      <trkpt lat="47.23918" lon="0.1369">
        <ele>34</ele>
        <time>2023-10-31T16:37:10Z</time>
      </trkpt>
      <trkpt lat="47.2388" lon="0.13364">
        <ele>33</ele>
        <time>2023-10-31T16:42:10Z</time>
      </trkpt>
      <trkpt lat="47.23761" lon="0.13025">
        <ele>34</ele>
        <time>2023-10-31T16:47:55Z</time>
      </trkpt>
      <trkpt lat="47.23492" lon="0.12017">
        <ele>34</ele>
        <time>2023-10-31T17:04:17Z</time>
      </trkpt>
      <trkpt lat="47.23886" lon="0.11914">
        <ele>31</ele>
        <time>2023-10-31T17:13:11Z</time>
      </trkpt>
      <trkpt lat="47.24154" lon="0.11875">
        <ele>29</ele>
        <time>2023-10-31T17:19:10Z</time>
      </trkpt>
      <trkpt lat="47.24302" lon="0.11931">
        <ele>28</ele>
        <time>2023-10-31T17:22:34Z</time>
      </trkpt>
      <trkpt lat="47.24378" lon="0.11896">
        <ele>29</ele>
        <time>2023-10-31T17:24:20Z</time>
      </trkpt>
      <trkpt lat="47.24434" lon="0.11781">
        <ele>29</ele>
        <time>2023-10-31T17:26:29Z</time>
      </trkpt>
      <trkpt lat="47.24664" lon="0.11751">
        <ele>29</ele>
        <time>2023-10-31T17:31:37Z</time>
      </trkpt>
      <trkpt lat="47.2478" lon="0.11802">
        <ele>28</ele>
        <time>2023-10-31T17:34:18Z</time>
      </trkpt>
      <trkpt lat="47.24923" lon="0.11806">
        <ele>28</ele>
        <time>2023-10-31T17:37:29Z</time>
      </trkpt>
      <trkpt lat="47.25045" lon="0.11738">
        <ele>28</ele>
        <time>2023-10-31T17:40:23Z</time>
      </trkpt>
      <trkpt lat="47.25028" lon="0.11806">
        <ele>28</ele>
        <time>2023-10-31T17:41:29Z</time>
      </trkpt>
      <trkpt lat="47.25101" lon="0.11862">
        <ele>29</ele>
        <time>2023-10-31T17:43:19Z</time>
      </trkpt>
      <trkpt lat="47.25063" lon="0.12416">
        <ele>28</ele>
        <time>2023-10-31T17:51:43Z</time>
      </trkpt>
      <trkpt lat="47.25264" lon="0.12484">
        <ele>30</ele>
        <time>2023-10-31T17:56:18Z</time>
      </trkpt>
      <trkpt lat="47.25517" lon="0.12673">
        <ele>28</ele>
        <time>2023-10-31T18:02:37Z</time>
      </trkpt>
      <trkpt lat="47.25686" lon="0.12798">
        <ele>28</ele>
        <time>2023-10-31T18:06:49Z</time>
      </trkpt>
      <trkpt lat="47.25648" lon="0.13235">
        <ele>28</ele>
        <time>2023-10-31T18:13:28Z</time>
      </trkpt>
      <trkpt lat="47.25943" lon="0.13566">
        <ele>28</ele>
        <time>2023-10-31T18:21:43Z</time>
      </trkpt>
      <trkpt lat="47.25963" lon="0.13665">
        <ele>27</ele>
        <time>2023-10-31T18:23:17Z</time>
      </trkpt>
      <trkpt lat="47.26242" lon="0.14021">
        <ele>28</ele>
        <time>2023-10-31T18:31:29Z</time>
      </trkpt>
      <trkpt lat="47.26545" lon="0.14107">
        <ele>29</ele>
        <time>2023-10-31T18:38:21Z</time>
      </trkpt>
      <trkpt lat="47.26784" lon="0.1421">
        <ele>28</ele>
        <time>2023-10-31T18:43:53Z</time>
      </trkpt>
      <trkpt lat="47.26985" lon="0.14205">
        <ele>28</ele>
        <time>2023-10-31T18:48:21Z</time>
      </trkpt>
      <trkpt lat="47.2734" lon="0.14334">
        <ele>28</ele>
        <time>2023-10-31T18:56:29Z</time>
      </trkpt>
      <trkpt lat="47.27652" lon="0.14527">
        <ele>28</ele>
        <time>2023-10-31T19:04:01Z</time>
      </trkpt>
      <trkpt lat="47.27742" lon="0.14669">
        <ele>29</ele>
        <time>2023-10-31T19:06:57Z</time>
      </trkpt>
      <trkpt lat="47.27716" lon="0.15064">
        <ele>28</ele>
        <time>2023-10-31T19:12:56Z</time>
      </trkpt>
      <trkpt lat="47.27745" lon="0.1542">
        <ele>31</ele>
        <time>2023-10-31T19:18:21Z</time>
      </trkpt>
      <trkpt lat="47.27966" lon="0.15476">
        <ele>29</ele>
        <time>2023-10-31T19:23:20Z</time>
      </trkpt>
      <trkpt lat="47.27934" lon="0.15819">
        <ele>31</ele>
        <time>2023-10-31T19:28:33Z</time>
      </trkpt>
      <trkpt lat="47.27963" lon="0.166">
        <ele>32</ele>
        <time>2023-10-31T19:40:22Z</time>
      </trkpt>
      <trkpt lat="47.27984" lon="0.16909">
        <ele>34</ele>
        <time>2023-10-31T19:45:03Z</time>
      </trkpt>
      <trkpt lat="47.28147" lon="0.16896">
        <ele>45</ele>
        <time>2023-10-31T19:48:40Z</time>
      </trkpt>
      <trkpt lat="47.28272" lon="0.16939">
        <ele>47</ele>
        <time>2023-10-31T19:51:32Z</time>
      </trkpt>
    </trkseg>
  </trk>
</gpx>